FZAA

Ndjili International Airport

Kinshasa, Congo, Democratic Republic of
METAR FZAA 260000Z 27004KT 9000 SCT016 BKN100 25/21 Q1011 NOSIG
Observed Flight Rules
May-26 @ 00:00 UTC (4 hours ago) Visual Flight Rules
Wind Visibility Clouds
270° at 4 knots 8,996 meters
  • Scattered at 1,600' AGL
  • Broken at 10,000' AGL
Temperatures Readings
Current 25°C / 77°F
Dewpoint 21°C / 70°F
Humidity 79%
Altimeter 29.85" Hg
Pressure 1011 hPa
Elevation 312
METAR FZAA 260000Z 27004KT 9000 SCT016 BKN100 25/21 Q1011 NOSIG
Observed Flight Rules
May-26 @ 00:00 UTC
(4 hours ago)
VFR
Wind Visibility
270° at 4 knots 8,996 meters
Clouds
  • Scattered at 1,600' AGL
  • Broken at 10,000' AGL
Temperature Dewpoint
25°C / 77°F 21°C / 70°F
Humidity Altimeter Pressure
79% 29.85" Hg 1011 hPa